METAR Data
IDs: Format: Raw Decoded Include TAF

Data at: 0247 UTC 18 Jun 2019

PAMK 180156Z AUTO 33011KT 10SM CLR 19/08 A2965 RMK AO2 SLP040 T01940083
PAMK 180056Z AUTO 31009KT 9SM CLR 18/09 A2967 RMK AO2 SLP048 T01780094
PAMK 172356Z AUTO 33010KT 10SM CLR 17/08 A2968 RMK AO2 SLP052 T01720078 10178 20150 56009
PAMK 172256Z AUTO 33008KT 10SM CLR 18/07 A2969 RMK AO2 SLP054 T01780067
PAMK 172156Z AUTO 32010KT 10SM CLR 17/07 A2970 RMK AO2 SLP058 T01720072
PAMK 172056Z AUTO 01010KT 10SM CLR 16/08 A2971 RMK AO2 SLP061 T01560078 58008
PAMK 171956Z AUTO 36006KT 10SM CLR 16/08 A2972 RMK AO2 SLP064 T01610083
PAMK 171856Z AUTO 35006KT 10SM CLR 15/08 A2973 RMK AO2 SLP067 T01500083
PAMK 171756Z AUTO 35011KT 10SM CLR 15/08 A2973 RMK AO2 SLP069 T01500078 10156 20133 58003
PAMK 171656Z AUTO 35008KT 10SM CLR 14/08 A2974 RMK AO2 SLP072 T01440078
PAMK 171556Z AUTO 33009KT 10SM CLR 14/08 A2974 RMK AO2 SLP072 T01390083
PAMK 171456Z AUTO 33009KT 10SM CLR 13/08 A2974 RMK AO2 SLP072 T01330078 57005
PAMK 171356Z AUTO 33009KT 10SM CLR 13/08 A2975 RMK AO2 SLP074 T01330083
PAMK 171256Z AUTO 33012KT 10SM CLR 13/09 A2975 RMK AO2 SLP075 T01330089
PAMK 171156Z AUTO 35012KT 10SM CLR 15/08 A2976 RMK AO2 SLP077 T01500083 10172 20139 58001
PAMK 171056Z AUTO 36014KT 10SM SCT055 OVC080 16/08 A2976 RMK AO2 SLP077 T01560083
PAMK 170956Z AUTO 36011KT 10SM FEW049 BKN080 OVC110 16/09 A2976 RMK AO2 SLP079 T01560089
PAMK 170856Z AUTO 36011KT 10SM OVC090 16/09 A2976 RMK AO2 SLP078 T01560094 401890100 53001
PAMK 170756Z AUTO 34009KT 10SM SCT100 15/11 A2976 RMK AO2 SLP076 T01500106
PAMK 170656Z AUTO 32012KT 10SM FEW080 OVC095 16/11 A2976 RMK AO2 SLP077 T01610106
PAMK 170556Z AUTO 32015KT 10SM BKN100 17/10 A2976 RMK AO2 SLP076 T01670100 10189 20161 56007
PAMK 170456Z AUTO 32016KT 10SM SCT095 BKN120 17/10 A2976 RMK AO2 SLP078 T01720100
PAMK 170356Z AUTO 32014KT 10SM FEW080 17/11 A2977 RMK AO2 SLP081 T01720106
PAMK 170256Z AUTO 33018KT 10SM BKN095 18/10 A2978 RMK AO2 SLP083 T01830100 57014
PAMK 170156Z AUTO 33013KT 10SM BKN090 18/09 A2979 RMK AO2 SLP086 T01830094
PAMK 170056Z AUTO 34010KT 10SM OVC090 17/10 A2981 RMK AO2 SLP094 T01720100
PAMK 162356Z AUTO 34012KT 10SM CLR 17/11 A2982 RMK AO2 SLP097 T01720106 10172 20144 58008
PAMK 162256Z AUTO 36009KT 4SM HZ CLR 17/11 A2983 RMK AO2 SLP101 T01670106
PAMK 162156Z AUTO 36007KT 4SM HZ OVC070 16/12 A2984 RMK AO2 SLP104 T01610117
PAMK 162056Z AUTO 36009KT 7SM SCT080 BKN090 16/12 A2984 RMK AO2 SLP106 T01560117 56003
PAMK 161956Z AUTO 33010KT 10SM FEW085 15/12 A2984 RMK AO2 SLP106 T01500117
PAMK 161856Z AUTO 34006KT 10SM CLR 16/11 A2985 RMK AO2 SLP108 T01610106
PAMK 161756Z AUTO 34006KT 10SM CLR 16/12 A2985 RMK AO2 SLP109 T01560117 10156 20100 53002
PAMK 161656Z AUTO 33004KT 10SM CLR 15/12 A2985 RMK AO2 SLP109 T01500122
PAMK 161556Z AUTO 32005KT 10SM CLR 14/13 A2985 RMK AO2 SLP107 T01390128
PAMK 161456Z AUTO 00000KT 10SM CLR 12/11 A2985 RMK AO2 SLP107 T01220106 53001